Time;durP1;ratioP1;P1;durP2;ratioP2;P2;SDS_P1;SDS_P2;PMS_P1;PMS_P2;Temp;Humidity;BMP_temperature;BMP_pressure;BME280_temperature;BME280_humidity;BME280_pressure;Samples;Min_cycle;Max_cycle;Signal;HPM_P1;HPM_P2
2022/07/14 00:02:16;;;;;;;0.98;0.98;;;23.60;60.50;;;;;;5087103;27;20032;-20
2022/07/14 00:04:41;;;;;;;1.13;0.70;;;23.60;60.50;;;;;;5087711;27;20032;-20
2022/07/14 00:07:07;;;;;;;1.10;1.00;;;23.50;60.50;;;;;;5087322;28;20042;-19
2022/07/14 00:09:32;;;;;;;1.20;0.90;;;23.50;60.50;;;;;;5084823;28;20506;-23
2022/07/14 00:11:58;;;;;;;1.02;0.95;;;23.50;60.60;;;;;;5084510;28;20067;-19
2022/07/14 00:14:24;;;;;;;1.00;1.00;;;23.40;60.60;;;;;;5087257;27;20555;-19
2022/07/14 00:16:49;;;;;;;1.35;1.25;;;23.40;60.70;;;;;;5086048;27;20040;-21
2022/07/14 00:19:15;;;;;;;0.80;0.80;;;23.40;60.70;;;;;;5085994;27;20494;-20
2022/07/14 00:21:40;;;;;;;2.47;1.00;;;23.40;60.60;;;;;;5086747;27;20089;-28
2022/07/14 00:24:09;;;;;;;2.40;1.25;;;23.40;60.80;;;;;;5086072;27;20052;-19
2022/07/14 00:26:35;;;;;;;2.13;1.10;;;23.30;61.10;;;;;;5085330;27;20376;-20
2022/07/14 00:29:01;;;;;;;1.45;0.95;;;23.30;61.30;;;;;;5083217;28;20050;-20
2022/07/14 00:31:26;;;;;;;2.50;0.85;;;23.30;61.20;;;;;;5082712;28;20052;-20
2022/07/14 00:33:52;;;;;;;0.80;0.80;;;23.30;61.20;;;;;;5086275;27;20093;-19
2022/07/14 00:36:17;;;;;;;2.83;0.90;;;23.30;61.20;;;;;;5083137;27;20115;-19
2022/07/14 00:38:43;;;;;;;1.35;1.08;;;23.30;61.00;;;;;;5084286;27;20050;-19
2022/07/14 00:41:08;;;;;;;1.35;1.25;;;23.40;61.10;;;;;;5085150;27;20410;-19
2022/07/14 00:43:34;;;;;;;0.90;0.90;;;23.20;61.30;;;;;;5085630;27;20032;-19
2022/07/14 00:46:00;;;;;;;1.02;0.90;;;23.20;61.40;;;;;;5087470;27;20037;-19
2022/07/14 00:48:27;;;;;;;1.00;0.80;;;23.20;61.60;;;;;;5086148;27;20036;-19
2022/07/14 00:50:53;;;;;;;1.23;1.00;;;23.20;61.60;;;;;;5084078;28;20048;-20
2022/07/14 00:53:19;;;;;;;2.47;1.35;;;23.20;61.50;;;;;;5084139;28;20315;-20
2022/07/14 00:55:44;;;;;;;1.02;1.02;;;23.20;61.50;;;;;;5084136;27;20056;-20
2022/07/14 00:58:10;;;;;;;2.10;1.42;;;23.20;61.50;;;;;;5085255;27;20571;-19
2022/07/14 01:00:36;;;;;;;1.40;1.27;;;23.10;62.00;;;;;;5086322;27;20119;-19
2022/07/14 01:03:01;;;;;;;1.38;1.20;;;23.10;62.00;;;;;;5084153;27;20120;-19
2022/07/14 01:05:27;;;;;;;3.42;1.48;;;23.10;62.10;;;;;;5085730;27;20040;-20
2022/07/14 01:07:54;;;;;;;1.33;1.25;;;23.00;62.30;;;;;;5083898;27;20584;-19
2022/07/14 01:10:19;;;;;;;1.23;1.10;;;23.00;62.60;;;;;;5084423;27;20515;-20
2022/07/14 01:12:46;;;;;;;1.30;1.20;;;23.00;63.60;;;;;;5085713;27;20044;-24
2022/07/14 01:15:14;;;;;;;1.33;1.23;;;23.00;62.90;;;;;;5082568;28;20069;-22
2022/07/14 01:17:39;;;;;;;1.40;1.30;;;23.00;62.80;;;;;;5085062;28;20421;-20
2022/07/14 01:20:06;;;;;;;1.10;1.00;;;22.90;63.00;;;;;;5084920;28;20567;-20
2022/07/14 01:22:31;;;;;;;2.00;1.00;;;22.90;63.00;;;;;;5078318;27;20044;-19
2022/07/14 01:24:57;;;;;;;1.65;1.20;;;22.90;63.20;;;;;;5087784;27;20403;-20
2022/07/14 01:27:22;;;;;;;2.90;1.60;;;22.90;63.40;;;;;;5084509;27;20050;-19
2022/07/14 01:29:48;;;;;;;1.00;0.90;;;22.90;63.60;;;;;;5083235;28;20048;-19
2022/07/14 01:32:13;;;;;;;1.67;1.13;;;22.80;63.80;;;;;;5084145;28;20044;-19
2022/07/14 01:34:39;;;;;;;2.22;1.05;;;22.80;64.00;;;;;;5084958;27;20063;-19
2022/07/14 01:37:05;;;;;;;1.95;1.20;;;22.80;64.00;;;;;;5085156;27;20052;-19
2022/07/14 01:39:30;;;;;;;1.95;1.20;;;22.80;64.10;;;;;;5085211;27;20516;-19
2022/07/14 01:41:56;;;;;;;2.20;1.13;;;22.80;64.30;;;;;;5083113;28;20046;-19
2022/07/14 01:44:21;;;;;;;1.05;1.02;;;22.80;64.40;;;;;;5083510;27;20399;-20
2022/07/14 01:46:47;;;;;;;1.60;1.50;;;22.80;64.70;;;;;;5086929;27;20035;-19
2022/07/14 01:49:13;;;;;;;1.38;1.27;;;22.70;64.70;;;;;;5084390;27;20498;-19
2022/07/14 01:51:38;;;;;;;1.58;1.15;;;22.70;64.70;;;;;;5084648;27;20039;-19
2022/07/14 01:54:04;;;;;;;1.58;1.20;;;22.70;65.00;;;;;;5085633;27;20039;-26
2022/07/14 01:56:30;;;;;;;2.65;0.93;;;22.70;65.40;;;;;;5075729;27;20491;-24
2022/07/14 01:58:55;;;;;;;2.38;1.40;;;22.60;65.70;;;;;;5084144;27;20097;-19
2022/07/14 02:01:40;;;;;;;1.05;1.05;;;22.60;65.80;;;;;;5085689;28;20526;-19
2022/07/14 02:04:10;;;;;;;1.50;1.17;;;22.60;65.90;;;;;;5085197;27;20032;-20
2022/07/14 02:06:36;;;;;;;1.23;1.10;;;22.60;66.30;;;;;;5086114;27;20036;-19
2022/07/14 02:09:01;;;;;;;1.60;1.50;;;22.60;66.30;;;;;;5083287;28;20032;-19
2022/07/14 02:14:19;;;;;;;2.45;1.20;;;22.60;66.70;;;;;;5074308;28;20032;-19
2022/07/14 02:16:44;;;;;;;1.27;1.17;;;22.50;66.70;;;;;;5083297;27;20062;-20
2022/07/14 02:19:10;;;;;;;1.65;1.30;;;22.50;66.90;;;;;;5085310;27;20044;-19
2022/07/14 02:21:35;;;;;;;1.95;1.80;;;22.50;67.50;;;;;;5083560;28;20024;-19
2022/07/14 02:24:02;;;;;;;1.48;1.40;;;22.50;68.40;;;;;;5079774;28;20388;-20
2022/07/14 02:26:27;;;;;;;1.75;1.48;;;22.40;67.70;;;;;;5082537;27;20040;-19
2022/07/14 02:28:53;;;;;;;1.80;1.70;;;22.50;67.80;;;;;;5082568;27;20097;-23
2022/07/14 02:31:18;;;;;;;2.28;1.30;;;22.50;68.00;;;;;;5082536;27;20089;-20
2022/07/14 02:33:45;;;;;;;1.52;1.42;;;22.40;68.10;;;;;;5084764;27;20513;-24
2022/07/14 02:36:11;;;;;;;1.65;1.30;;;22.40;68.20;;;;;;5084184;27;20433;-19
2022/07/14 02:38:37;;;;;;;2.75;1.70;;;22.40;68.50;;;;;;5083200;27;20579;-24
2022/07/14 02:41:04;;;;;;;1.48;1.35;;;22.30;68.50;;;;;;5084596;27;20093;-23
2022/07/14 02:43:31;;;;;;;1.63;1.30;;;22.30;68.80;;;;;;5083782;27;20114;-19
2022/07/14 02:45:58;;;;;;;2.08;1.98;;;22.20;68.90;;;;;;5084777;27;20479;-19
2022/07/14 02:48:23;;;;;;;1.80;1.70;;;22.30;69.20;;;;;;5083689;27;20070;-19
2022/07/14 02:50:49;;;;;;;2.20;1.80;;;22.20;69.20;;;;;;5084483;27;20502;-19
2022/07/14 02:53:14;;;;;;;2.15;1.55;;;22.20;69.30;;;;;;5083628;27;22452;-20
2022/07/14 02:55:40;;;;;;;1.40;1.30;;;22.20;69.50;;;;;;5082700;27;20127;-19
2022/07/14 02:58:05;;;;;;;2.40;1.52;;;22.30;69.40;;;;;;5084762;27;20037;-22
2022/07/14 03:00:31;;;;;;;2.08;1.50;;;22.20;69.60;;;;;;5084520;27;20482;-20
2022/07/14 03:02:57;;;;;;;1.80;1.60;;;22.20;69.70;;;;;;5082127;28;20044;-20
2022/07/14 03:05:23;;;;;;;1.83;1.73;;;22.30;69.50;;;;;;5082585;28;20505;-19
2022/07/14 03:07:49;;;;;;;1.92;1.80;;;22.20;69.80;;;;;;5083588;27;20082;-19
2022/07/14 03:10:14;;;;;;;2.00;1.70;;;22.20;69.90;;;;;;5083085;27;20290;-20
2022/07/14 03:12:40;;;;;;;2.05;1.85;;;22.20;70.00;;;;;;5084705;27;20040;-19
2022/07/14 03:15:09;;;;;;;2.00;1.80;;;22.20;69.80;;;;;;5083263;27;20047;-20
2022/07/14 03:17:34;;;;;;;2.00;1.85;;;22.20;69.90;;;;;;5079267;27;20032;-19
2022/07/14 03:20:00;;;;;;;2.03;1.92;;;22.20;70.20;;;;;;5084211;27;20044;-20
2022/07/14 03:22:26;;;;;;;1.90;1.80;;;22.10;70.40;;;;;;5081502;27;20063;-19
2022/07/14 03:24:52;;;;;;;2.63;2.10;;;22.10;70.50;;;;;;5083969;27;20043;-19
2022/07/14 03:27:17;;;;;;;1.67;1.58;;;22.10;70.60;;;;;;5082608;27;20035;-19
2022/07/14 03:29:43;;;;;;;2.30;2.10;;;22.00;70.60;;;;;;5081179;28;20048;-19
2022/07/14 03:32:09;;;;;;;2.33;2.13;;;22.10;70.80;;;;;;5083921;27;20044;-19
2022/07/14 03:34:34;;;;;;;2.25;2.05;;;22.10;70.80;;;;;;5082842;27;20510;-19
2022/07/14 03:37:00;;;;;;;2.40;2.05;;;22.00;71.80;;;;;;5083292;27;20056;-20
2022/07/14 03:39:26;;;;;;;2.03;1.88;;;22.00;71.20;;;;;;5083132;27;20124;-19
2022/07/14 03:41:52;;;;;;;2.17;1.90;;;22.00;71.20;;;;;;5083225;27;20051;-23
2022/07/14 03:44:18;;;;;;;1.80;1.70;;;22.00;71.20;;;;;;5085348;27;20049;-19
2022/07/14 03:46:43;;;;;;;1.85;1.75;;;21.90;71.10;;;;;;5081755;27;20829;-19
2022/07/14 03:49:09;;;;;;;2.03;1.92;;;21.90;71.20;;;;;;5085608;27;20047;-20
2022/07/14 03:51:34;;;;;;;2.38;2.17;;;22.00;71.20;;;;;;5087635;27;20425;-20
2022/07/14 03:54:00;;;;;;;2.47;2.33;;;21.90;71.30;;;;;;5085990;27;20494;-20
2022/07/14 03:56:26;;;;;;;2.78;2.60;;;21.90;71.80;;;;;;5084754;28;20032;-19
2022/07/14 03:58:51;;;;;;;2.92;2.58;;;21.60;72.40;;;;;;5086372;27;20041;-22
2022/07/14 04:01:17;;;;;;;2.05;1.95;;;21.70;72.40;;;;;;5085130;28;20147;-19
2022/07/14 04:03:43;;;;;;;2.78;2.58;;;21.80;72.50;;;;;;5087212;27;20071;-28
2022/07/14 04:06:08;;;;;;;3.15;2.92;;;21.80;72.50;;;;;;5086383;28;20055;-19
2022/07/14 04:08:34;;;;;;;2.70;2.50;;;21.70;72.60;;;;;;5083330;28;20080;-20
2022/07/14 04:10:59;;;;;;;3.05;2.83;;;21.60;72.60;;;;;;5084231;27;20048;-20
2022/07/14 04:13:25;;;;;;;2.55;2.45;;;21.60;72.80;;;;;;5079345;28;20636;-21
2022/07/14 04:15:51;;;;;;;3.15;2.85;;;21.60;73.00;;;;;;5079994;27;20148;-20
2022/07/14 04:18:16;;;;;;;3.50;3.20;;;21.50;73.60;;;;;;5078836;27;20039;-19
2022/07/14 04:20:51;;;;;;;3.30;3.10;;;21.40;73.60;;;;;;5076069;27;20551;-19
2022/07/14 04:23:17;;;;;;;3.33;2.97;;;21.40;73.60;;;;;;4368867;27;10003304;-19
2022/07/14 04:25:42;;;;;;;3.60;3.40;;;21.30;74.00;;;;;;5074503;27;20115;-19
2022/07/14 04:28:08;;;;;;;4.55;3.33;;;21.30;73.90;;;;;;5082519;28;20127;-20
2022/07/14 04:30:33;;;;;;;3.50;3.20;;;21.30;73.80;;;;;;5083397;27;20036;-19
2022/07/14 04:32:59;;;;;;;3.10;2.80;;;21.20;74.20;;;;;;5084693;27;20483;-19
2022/07/14 04:35:24;;;;;;;3.63;3.33;;;21.20;74.50;;;;;;5082981;27;20036;-20
2022/07/14 04:37:50;;;;;;;3.40;3.20;;;21.20;74.40;;;;;;5083311;27;20036;-20
2022/07/14 04:40:16;;;;;;;3.83;3.63;;;21.20;74.20;;;;;;5083693;27;20098;-20
2022/07/14 04:42:41;;;;;;;3.60;3.30;;;21.10;74.60;;;;;;5085240;27;20521;-19
2022/07/14 04:45:08;;;;;;;3.75;3.53;;;21.10;75.50;;;;;;5081810;27;20437;-20
2022/07/14 04:47:33;;;;;;;4.50;4.20;;;21.10;75.00;;;;;;5084616;27;20164;-20
2022/07/14 04:52:47;;;;;;;3.58;3.38;;;21.10;74.80;;;;;;5082079;27;20046;-20
2022/07/14 04:55:13;;;;;;;4.40;4.10;;;21.10;75.00;;;;;;5081656;27;20529;-19
2022/07/14 04:57:39;;;;;;;3.55;3.35;;;21.00;75.20;;;;;;5079105;28;20047;-19
2022/07/14 05:00:05;;;;;;;3.75;3.45;;;21.00;75.40;;;;;;5079559;27;20037;-20
2022/07/14 05:02:31;;;;;;;3.08;2.92;;;21.00;75.40;;;;;;5082160;27;20071;-20
2022/07/14 05:04:56;;;;;;;3.13;2.92;;;21.00;75.50;;;;;;5082742;27;20490;-21
2022/07/14 05:07:22;;;;;;;4.03;3.78;;;21.00;75.50;;;;;;5081854;27;20071;-19
2022/07/14 05:09:47;;;;;;;3.55;3.28;;;21.00;75.90;;;;;;5082149;27;20619;-20
2022/07/14 05:12:16;;;;;;;3.50;3.30;;;21.00;75.80;;;;;;5085563;27;20059;-19
2022/07/14 05:14:41;;;;;;;3.88;3.50;;;21.00;76.90;;;;;;5080075;27;20411;-20
2022/07/14 05:17:07;;;;;;;3.53;3.25;;;20.90;76.10;;;;;;5082765;28;20055;-20
2022/07/14 05:19:33;;;;;;;3.70;3.40;;;21.00;76.00;;;;;;5081437;27;20433;-19
2022/07/14 05:21:58;;;;;;;4.43;4.03;;;21.00;75.70;;;;;;5085675;27;20047;-19
2022/07/14 05:24:24;;;;;;;3.95;3.75;;;20.90;76.40;;;;;;5082181;28;20494;-20
2022/07/14 05:26:49;;;;;;;4.00;3.75;;;20.80;76.70;;;;;;5079654;27;20044;-19
2022/07/14 05:29:15;;;;;;;3.97;3.67;;;20.90;76.70;;;;;;5085215;27;20036;-30
2022/07/14 05:31:40;;;;;;;4.32;4.13;;;20.80;77.10;;;;;;5084207;27;20040;-19
2022/07/14 05:34:06;;;;;;;4.43;4.05;;;20.90;77.30;;;;;;5081904;28;20056;-19
2022/07/14 05:36:32;;;;;;;3.75;3.45;;;20.80;77.70;;;;;;5084701;27;20064;-24
2022/07/14 05:38:57;;;;;;;4.85;3.75;;;20.80;77.80;;;;;;5083432;27;20048;-20
2022/07/14 05:41:23;;;;;;;4.25;4.00;;;20.70;78.40;;;;;;5081411;27;20082;-19
2022/07/14 05:43:48;;;;;;;4.03;3.75;;;20.70;78.60;;;;;;5084364;27;20766;-19
2022/07/14 05:46:14;;;;;;;4.15;3.95;;;20.70;78.60;;;;;;5083309;28;20032;-21
2022/07/14 05:48:40;;;;;;;3.60;3.20;;;20.70;79.00;;;;;;4376999;27;10000884;-19
2022/07/14 05:51:15;;;;;;;3.38;3.05;;;20.80;78.20;;;;;;5080834;27;20052;-20
2022/07/14 05:53:42;;;;;;;3.22;3.00;;;21.00;77.50;;;;;;5078758;27;20082;-20
2022/07/14 05:56:08;;;;;;;3.65;3.05;;;21.10;77.40;;;;;;5077693;27;20051;-19
2022/07/14 05:58:35;;;;;;;2.97;2.80;;;21.10;77.90;;;;;;5075325;27;20459;-19
2022/07/14 06:01:01;;;;;;;2.90;2.42;;;21.10;77.00;;;;;;5071750;27;20048;-20
2022/07/14 06:03:26;;;;;;;3.03;2.83;;;21.10;76.60;;;;;;5078535;27;20035;-19
2022/07/14 06:05:52;;;;;;;2.97;2.83;;;21.20;76.80;;;;;;5074819;27;20402;-19
2022/07/14 06:08:17;;;;;;;4.53;2.92;;;21.20;76.90;;;;;;5077769;28;20039;-19
2022/07/14 06:10:43;;;;;;;3.67;3.15;;;21.30;77.00;;;;;;5077657;27;20040;-19
2022/07/14 06:13:09;;;;;;;3.35;3.10;;;21.30;77.10;;;;;;5075837;27;20131;-22
2022/07/14 06:15:35;;;;;;;3.28;2.97;;;21.30;77.00;;;;;;5081947;27;20039;-20
2022/07/14 06:18:00;;;;;;;3.30;3.10;;;21.30;76.90;;;;;;5075837;27;20900;-19
2022/07/14 06:20:26;;;;;;;3.72;2.83;;;21.30;77.00;;;;;;5077159;27;20040;-19
2022/07/14 06:22:52;;;;;;;2.80;2.60;;;21.30;77.30;;;;;;5074899;27;20044;-20
2022/07/14 06:25:17;;;;;;;3.00;2.80;;;21.30;77.10;;;;;;5075932;27;20581;-19
2022/07/14 06:27:43;;;;;;;2.47;2.28;;;21.30;77.30;;;;;;5077735;27;20055;-19
2022/07/14 06:30:09;;;;;;;2.60;2.33;;;21.30;77.20;;;;;;5077382;27;20052;-19
2022/07/14 06:32:41;;;;;;;2.50;2.30;;;21.30;76.90;;;;;;5078636;28;20101;-19
2022/07/14 06:35:10;;;;;;;2.42;2.30;;;21.30;77.40;;;;;;5073693;27;20063;-19
2022/07/14 06:37:36;;;;;;;2.67;2.47;;;21.30;77.10;;;;;;5078553;27;20036;-20
2022/07/14 06:40:04;;;;;;;3.00;2.80;;;21.30;77.30;;;;;;5076757;27;20472;-19
2022/07/14 06:42:30;;;;;;;2.17;2.08;;;21.30;77.40;;;;;;5079015;27;20047;-20
2022/07/14 06:44:56;;;;;;;3.22;1.85;;;21.30;77.30;;;;;;5077322;27;20056;-21
2022/07/14 06:47:22;;;;;;;1.80;1.70;;;21.40;77.30;;;;;;5079241;27;20756;-20
2022/07/14 06:49:47;;;;;;;2.10;1.90;;;21.40;77.00;;;;;;5077075;27;20056;-26
2022/07/14 06:52:13;;;;;;;1.83;1.30;;;21.40;76.70;;;;;;5075779;28;20548;-20
2022/07/14 06:54:38;;;;;;;1.77;1.67;;;21.40;77.00;;;;;;5077229;27;20082;-19
2022/07/14 06:57:04;;;;;;;1.75;1.65;;;21.50;76.70;;;;;;5075635;27;20071;-20
2022/07/14 06:59:29;;;;;;;1.55;1.45;;;21.40;76.90;;;;;;5077850;27;20141;-20
2022/07/14 07:01:55;;;;;;;1.30;1.20;;;21.50;76.50;;;;;;5078661;27;20055;-28
2022/07/14 07:04:21;;;;;;;2.38;1.50;;;21.60;75.90;;;;;;5077032;27;20465;-20
2022/07/14 07:06:47;;;;;;;2.35;1.17;;;21.70;75.50;;;;;;5078504;27;20506;-20
2022/07/14 07:09:13;;;;;;;1.17;1.17;;;21.70;75.50;;;;;;5079287;27;20036;-20
2022/07/14 07:11:39;;;;;;;1.88;1.40;;;21.70;76.00;;;;;;5072437;28;20063;-21
2022/07/14 07:14:05;;;;;;;1.15;0.90;;;21.70;75.50;;;;;;5076787;27;20055;-20
2022/07/14 07:16:30;;;;;;;1.05;0.95;;;21.80;75.20;;;;;;5078721;27;20149;-19
2022/07/14 07:18:57;;;;;;;1.58;1.00;;;21.80;74.90;;;;;;5077751;27;20538;-20
2022/07/14 07:21:22;;;;;;;0.90;0.90;;;21.80;75.10;;;;;;5080084;27;20052;-19
2022/07/14 07:23:48;;;;;;;2.45;1.00;;;21.80;74.80;;;;;;5078413;27;20040;-20
2022/07/14 07:26:15;;;;;;;1.23;1.13;;;21.80;74.60;;;;;;5079102;27;20048;-19
2022/07/14 07:28:40;;;;;;;0.80;0.77;;;21.80;74.60;;;;;;5080922;27;20040;-20
2022/07/14 07:31:06;;;;;;;1.25;1.15;;;21.90;74.60;;;;;;5080302;27;20040;-19
2022/07/14 07:33:32;;;;;;;1.00;0.90;;;21.90;74.40;;;;;;5082220;28;20338;-21
2022/07/14 07:35:58;;;;;;;0.77;0.73;;;21.90;74.20;;;;;;5079932;27;20046;-19
2022/07/14 07:38:24;;;;;;;1.52;1.10;;;21.90;74.60;;;;;;5081636;27;20558;-19
2022/07/14 07:40:50;;;;;;;0.70;0.70;;;22.00;74.10;;;;;;5077596;28;20048;-20
2022/07/14 07:43:16;;;;;;;1.20;1.00;;;22.00;73.40;;;;;;5080013;27;20068;-25
2022/07/14 07:45:41;;;;;;;0.70;0.65;;;22.10;73.40;;;;;;5082938;28;20517;-20
2022/07/14 07:48:07;;;;;;;1.35;0.93;;;22.10;73.50;;;;;;5081682;27;20117;-20
2022/07/14 07:50:33;;;;;;;1.15;0.63;;;22.10;73.20;;;;;;5078662;27;20579;-28
2022/07/14 07:52:59;;;;;;;0.85;0.63;;;22.20;73.40;;;;;;5081817;28;20139;-20
2022/07/14 07:55:25;;;;;;;1.67;1.00;;;22.20;72.30;;;;;;5079683;27;20413;-20
2022/07/14 07:57:51;;;;;;;1.15;0.82;;;22.20;71.80;;;;;;5078059;27;20040;-20
2022/07/14 08:00:16;;;;;;;1.90;0.90;;;22.20;71.40;;;;;;5076042;27;20085;-20
2022/07/14 08:02:50;;;;;;;2.53;0.80;;;22.30;71.20;;;;;;5080518;27;20036;-20
2022/07/14 08:05:16;;;;;;;0.98;0.70;;;22.30;71.00;;;;;;5077584;28;20040;-19
2022/07/14 08:07:42;;;;;;;1.13;1.02;;;22.30;70.90;;;;;;5081029;27;20571;-19
2022/07/14 08:10:08;;;;;;;1.33;1.17;;;22.30;71.10;;;;;;5075079;27;20040;-19
2022/07/14 08:12:34;;;;;;;1.70;1.00;;;22.30;70.20;;;;;;5081752;27;20044;-29
2022/07/14 08:14:59;;;;;;;1.02;0.93;;;22.30;70.00;;;;;;5074421;27;20425;-20
2022/07/14 08:17:25;;;;;;;1.05;0.93;;;22.30;70.10;;;;;;5075858;28;20093;-20
2022/07/14 08:19:50;;;;;;;2.95;0.98;;;22.30;70.70;;;;;;5073030;27;20509;-20
2022/07/14 08:22:26;;;;;;;0.80;0.80;;;22.40;69.70;;;;;;5072927;27;20186;-20
2022/07/14 08:24:51;;;;;;;2.00;0.90;;;22.40;69.20;;;;;;5077653;27;20417;-20
2022/07/14 08:27:17;;;;;;;0.82;0.70;;;22.40;68.50;;;;;;5073212;28;20748;-20
2022/07/14 08:29:43;;;;;;;1.23;0.75;;;22.40;68.60;;;;;;5072220;28;20044;-20
2022/07/14 08:32:08;;;;;;;0.85;0.70;;;22.40;68.60;;;;;;5070231;27;20052;-20
2022/07/14 08:34:34;;;;;;;0.80;0.80;;;22.50;68.30;;;;;;5079940;27;20581;-20
2022/07/14 08:37:00;;;;;;;0.70;0.70;;;22.50;68.10;;;;;;5080875;27;20040;-20
2022/07/14 08:39:26;;;;;;;1.67;0.68;;;22.50;68.10;;;;;;5075688;28;20119;-20
2022/07/14 08:41:54;;;;;;;0.60;0.60;;;22.60;68.00;;;;;;5076874;27;20038;-19
2022/07/14 08:44:20;;;;;;;0.65;0.63;;;22.60;68.20;;;;;;5078000;27;20517;-20
2022/07/14 08:46:46;;;;;;;0.80;0.80;;;22.60;68.00;;;;;;5078089;28;20044;-20
2022/07/14 08:49:11;;;;;;;0.80;0.60;;;22.60;68.20;;;;;;5079240;27;20127;-25
2022/07/14 08:51:38;;;;;;;0.95;0.73;;;22.60;68.00;;;;;;5080313;28;20056;-20
2022/07/14 08:54:03;;;;;;;0.77;0.63;;;22.60;68.80;;;;;;5081348;27;20075;-20
2022/07/14 08:56:30;;;;;;;0.70;0.70;;;22.60;68.10;;;;;;5079650;27;20458;-19
2022/07/14 08:58:55;;;;;;;0.65;0.65;;;22.60;67.90;;;;;;5077327;27;20131;-19
2022/07/14 09:01:21;;;;;;;0.65;0.50;;;22.60;67.90;;;;;;5075601;28;20056;-20
2022/07/14 09:03:49;;;;;;;1.08;0.60;;;22.70;68.10;;;;;;5082824;27;20447;-19
2022/07/14 09:06:53;;;;;;;0.73;0.73;;;22.70;67.90;;;;;;5076662;27;20492;-19
2022/07/14 09:09:24;;;;;;;2.67;0.85;;;22.70;67.90;;;;;;5076298;28;20039;-20
2022/07/14 09:12:06;;;;;;;0.57;0.55;;;22.70;67.70;;;;;;5078128;27;20052;-19
2022/07/14 09:17:24;;;;;;;0.82;0.50;;;22.70;67.60;;;;;;5077938;28;20058;-20
2022/07/14 09:20:10;;;;;;;0.70;0.60;;;22.70;67.70;;;;;;5077856;28;20048;-20
2022/07/14 09:22:38;;;;;;;0.77;0.68;;;22.70;67.70;;;;;;5077063;27;20052;-19
2022/07/14 09:25:08;;;;;;;0.70;0.63;;;22.70;67.70;;;;;;5077614;27;20221;-23
2022/07/14 09:27:34;;;;;;;1.27;0.60;;;22.70;67.80;;;;;;5079527;27;20048;-20
2022/07/14 09:30:00;;;;;;;0.68;0.68;;;22.70;67.80;;;;;;5079062;27;20047;-19
2022/07/14 09:32:57;;;;;;;0.70;0.60;;;22.70;67.80;;;;;;5080424;27;20529;-20
2022/07/14 09:35:27;;;;;;;0.60;0.60;;;22.70;67.80;;;;;;5073779;27;20048;-19
2022/07/14 09:37:54;;;;;;;0.82;0.60;;;22.70;67.70;;;;;;5079432;28;20529;-20
2022/07/14 09:40:21;;;;;;;0.50;0.50;;;22.70;67.60;;;;;;5078978;27;20053;-20
2022/07/14 09:42:51;;;;;;;0.73;0.60;;;22.70;67.60;;;;;;5072793;27;20059;-19
2022/07/14 09:45:38;;;;;;;0.82;0.50;;;22.80;67.70;;;;;;5069605;27;20062;-20
2022/07/14 09:48:08;;;;;;;0.90;0.50;;;22.80;67.80;;;;;;5070907;28;20052;-24
2022/07/14 09:50:36;;;;;;;0.70;0.70;;;22.80;67.70;;;;;;5069987;28;20073;-20
2022/07/14 09:53:35;;;;;;;1.35;0.70;;;22.80;67.80;;;;;;5068326;27;20569;-20
2022/07/14 09:56:05;;;;;;;0.50;0.50;;;22.80;67.70;;;;;;5065656;27;20040;-19
2022/07/14 09:58:32;;;;;;;0.52;0.50;;;22.80;67.60;;;;;;5071997;28;20044;-20
2022/07/14 10:01:03;;;;;;;0.60;0.60;;;22.80;67.50;;;;;;5069867;27;20131;-19
2022/07/14 10:03:31;;;;;;;0.55;0.55;;;22.80;67.50;;;;;;5078003;27;20136;-19
2022/07/14 10:05:57;;;;;;;0.70;0.70;;;22.80;67.40;;;;;;5075716;27;20094;-19
2022/07/14 10:08:26;;;;;;;1.75;0.85;;;22.90;67.40;;;;;;5069934;28;20059;-20
2022/07/14 10:10:52;;;;;;;0.85;0.60;;;22.90;67.40;;;;;;5073294;27;20130;-20
2022/07/14 10:13:19;;;;;;;0.60;0.60;;;22.90;67.30;;;;;;5079254;27;20040;-19
2022/07/14 10:15:44;;;;;;;0.63;0.63;;;22.90;67.20;;;;;;5075599;28;20043;-20
2022/07/14 10:18:10;;;;;;;1.00;0.68;;;22.90;67.10;;;;;;5079168;27;20051;-20
2022/07/14 10:20:36;;;;;;;0.57;0.50;;;22.90;67.20;;;;;;5061227;28;20040;-27
2022/07/14 10:23:02;;;;;;;0.57;0.57;;;22.90;67.00;;;;;;5078689;27;20127;-20
2022/07/14 10:25:27;;;;;;;0.57;0.57;;;22.90;67.10;;;;;;5078608;28;20131;-20
2022/07/14 10:27:53;;;;;;;0.60;0.60;;;22.90;66.90;;;;;;5080083;28;20029;-20
2022/07/14 10:30:18;;;;;;;0.60;0.50;;;22.90;67.00;;;;;;5074973;28;20518;-21
2022/07/14 10:33:04;;;;;;;0.50;0.50;;;22.90;67.00;;;;;;5061879;28;20708;-21
2022/07/14 10:35:50;;;;;;;0.50;0.50;;;22.90;66.90;;;;;;5060282;28;20042;-23
2022/07/14 10:38:41;;;;;;;4.35;0.55;;;22.90;66.80;;;;;;5078252;27;20446;-20
2022/07/14 10:41:22;;;;;;;0.40;0.40;;;22.90;66.70;;;;;;5075712;27;20044;-19
2022/07/14 10:44:00;;;;;;;0.70;0.50;;;22.90;66.80;;;;;;5079280;28;20032;-20
2022/07/14 10:46:35;;;;;;;0.95;0.60;;;23.00;66.70;;;;;;5078459;27;20186;-19
2022/07/14 10:49:02;;;;;;;0.57;0.57;;;23.00;66.70;;;;;;5076059;28;20414;-20
2022/07/14 10:51:28;;;;;;;2.38;0.52;;;23.00;66.70;;;;;;5077899;27;20068;-20
2022/07/14 10:54:29;;;;;;;0.43;0.43;;;23.00;66.70;;;;;;5076668;28;20139;-20
2022/07/14 10:57:15;;;;;;;0.82;0.70;;;23.00;66.80;;;;;;5076176;27;20106;-22
2022/07/14 10:59:42;;;;;;;0.40;0.40;;;23.00;66.60;;;;;;5073504;27;20097;-19
2022/07/14 11:02:13;;;;;;;0.68;0.60;;;23.00;66.70;;;;;;5077330;27;20032;-20
2022/07/14 11:05:12;;;;;;;0.50;0.50;;;23.00;66.60;;;;;;5077266;27;20036;-20
2022/07/14 11:08:03;;;;;;;0.88;0.50;;;23.00;66.60;;;;;;5073986;28;20047;-20
2022/07/14 11:10:28;;;;;;;0.50;0.50;;;23.00;66.40;;;;;;5075151;27;20381;-20
2022/07/14 11:13:02;;;;;;;0.68;0.60;;;23.10;67.20;;;;;;5078628;27;20048;-19
2022/07/14 11:15:39;;;;;;;0.40;0.40;;;23.00;66.60;;;;;;5076707;27;20047;-31
2022/07/14 11:18:36;;;;;;;0.50;0.50;;;23.00;66.40;;;;;;5075922;27;20074;-21
2022/07/14 11:21:08;;;;;;;0.55;0.55;;;23.00;66.30;;;;;;5070707;27;20589;-18
2022/07/14 11:23:34;;;;;;;0.77;0.60;;;23.00;66.00;;;;;;5077575;27;20052;-19
2022/07/14 11:26:32;;;;;;;0.43;0.43;;;23.10;66.30;;;;;;5078863;27;20499;-23
2022/07/14 11:28:58;;;;;;;1.17;0.60;;;23.10;65.90;;;;;;5077667;28;20043;-18
2022/07/14 11:31:24;;;;;;;0.43;0.43;;;23.10;65.90;;;;;;5074717;27;20045;-19
2022/07/14 11:36:44;;;;;;;0.30;0.30;;;23.10;66.00;;;;;;5076941;27;20047;-19
2022/07/14 11:39:15;;;;;;;0.70;0.50;;;23.10;66.00;;;;;;5077566;27;20055;-18
2022/07/14 11:41:42;;;;;;;0.50;0.50;;;23.10;66.00;;;;;;5076152;28;20120;-18
2022/07/14 11:44:28;;;;;;;0.55;0.40;;;23.20;65.70;;;;;;5074985;27;20062;-19
2022/07/14 11:47:00;;;;;;;0.50;0.47;;;23.20;65.70;;;;;;5078208;28;20131;-18
2022/07/14 11:49:26;;;;;;;0.50;0.50;;;23.20;65.30;;;;;;5078563;27;20581;-18
2022/07/14 11:51:56;;;;;;;0.60;0.50;;;23.20;65.60;;;;;;5078226;27;20064;-19
2022/07/14 11:54:22;;;;;;;0.60;0.60;;;23.20;65.30;;;;;;5077508;27;20071;-19
2022/07/14 11:56:48;;;;;;;0.70;0.50;;;23.20;65.30;;;;;;5075564;28;20051;-22
2022/07/14 11:59:17;;;;;;;0.47;0.40;;;23.20;65.30;;;;;;5077122;27;20036;-18
2022/07/14 12:01:44;;;;;;;0.63;0.45;;;23.20;65.40;;;;;;5074915;28;20083;-19
2022/07/14 12:04:17;;;;;;;0.47;0.47;;;23.20;65.10;;;;;;5078747;27;20036;-18
2022/07/14 12:06:44;;;;;;;0.50;0.50;;;23.20;64.90;;;;;;5081555;27;20046;-18
2022/07/14 12:09:10;;;;;;;0.50;0.50;;;23.20;64.90;;;;;;5082200;27;20109;-18
2022/07/14 12:11:36;;;;;;;2.17;0.40;;;23.30;64.80;;;;;;5080719;27;20464;-20
2022/07/14 12:14:02;;;;;;;1.13;0.60;;;23.30;64.60;;;;;;5078472;27;20068;-21
2022/07/14 12:16:28;;;;;;;0.50;0.40;;;23.30;64.90;;;;;;5080770;27;20058;-19
2022/07/14 12:18:54;;;;;;;0.60;0.60;;;23.30;64.40;;;;;;5083858;27;20406;-19
2022/07/14 12:21:35;;;;;;;0.38;0.38;;;23.30;64.80;;;;;;5078604;27;20707;-19
2022/07/14 12:24:01;;;;;;;0.60;0.60;;;23.30;64.40;;;;;;5079473;27;20036;-19
2022/07/14 12:26:26;;;;;;;0.50;0.35;;;23.30;64.40;;;;;;5080113;27;20047;-19
2022/07/14 12:29:00;;;;;;;0.60;0.60;;;23.30;64.80;;;;;;5080788;27;20525;-20
2022/07/14 12:31:26;;;;;;;0.40;0.40;;;23.30;63.90;;;;;;5078841;27;20055;-18
2022/07/14 12:33:52;;;;;;;0.40;0.40;;;23.30;64.00;;;;;;5084455;27;20044;-19
2022/07/14 12:36:19;;;;;;;0.65;0.60;;;23.30;64.50;;;;;;5078244;27;20057;-18
2022/07/14 12:38:45;;;;;;;0.60;0.30;;;23.30;64.40;;;;;;5081769;28;20047;-19
2022/07/14 12:41:11;;;;;;;0.75;0.47;;;23.30;64.40;;;;;;5077857;27;20047;-18
2022/07/14 12:43:39;;;;;;;0.50;0.40;;;23.30;64.20;;;;;;5082251;28;20056;-20
2022/07/14 12:46:18;;;;;;;0.40;0.40;;;23.30;64.00;;;;;;5078695;27;20441;-18
2022/07/14 12:48:49;;;;;;;0.63;0.40;;;23.30;64.30;;;;;;5083823;28;20048;-19
2022/07/14 12:51:18;;;;;;;0.43;0.40;;;23.30;63.80;;;;;;5078112;27;20032;-18
2022/07/14 12:53:56;;;;;;;0.40;0.40;;;23.30;63.70;;;;;;5078125;27;20109;-18
2022/07/14 12:56:22;;;;;;;2.15;0.43;;;23.30;63.80;;;;;;5076762;27;20043;-18
2022/07/14 12:58:48;;;;;;;0.55;0.40;;;23.30;63.40;;;;;;5078837;28;20040;-27
2022/07/14 13:01:13;;;;;;;0.60;0.57;;;23.30;63.40;;;;;;5077273;27;20028;-18